sensor_id;sensor_type;location;lat;lon;timestamp;P1;durP1;ratioP1;P2;durP2;ratioP2
8281;SDS011;25606;42.686;23.136;2023-06-26T00:02:20;17.70;;;15.73;;
8281;SDS011;25606;42.686;23.136;2023-06-26T00:04:49;18.20;;;15.80;;
8281;SDS011;25606;42.686;23.136;2023-06-26T00:07:18;18.30;;;15.33;;
8281;SDS011;25606;42.686;23.136;2023-06-26T00:09:46;18.90;;;14.53;;
8281;SDS011;25606;42.686;23.136;2023-06-26T00:12:13;18.50;;;15.20;;
8281;SDS011;25606;42.686;23.136;2023-06-26T00:14:40;16.40;;;14.47;;
8281;SDS011;25606;42.686;23.136;2023-06-26T00:17:07;15.43;;;13.80;;
8281;SDS011;25606;42.686;23.136;2023-06-26T00:19:35;16.47;;;14.70;;
8281;SDS011;25606;42.686;23.136;2023-06-26T00:22:04;18.67;;;14.60;;
8281;SDS011;25606;42.686;23.136;2023-06-26T00:24:31;15.63;;;14.03;;
8281;SDS011;25606;42.686;23.136;2023-06-26T00:26:58;15.27;;;13.83;;
8281;SDS011;25606;42.686;23.136;2023-06-26T00:29:26;16.90;;;14.50;;
8281;SDS011;25606;42.686;23.136;2023-06-26T00:31:53;15.27;;;13.67;;
8281;SDS011;25606;42.686;23.136;2023-06-26T00:34:20;18.27;;;14.80;;
8281;SDS011;25606;42.686;23.136;2023-06-26T00:36:47;18.57;;;14.87;;
8281;SDS011;25606;42.686;23.136;2023-06-26T00:39:16;17.23;;;15.10;;
8281;SDS011;25606;42.686;23.136;2023-06-26T00:41:43;15.87;;;14.27;;
8281;SDS011;25606;42.686;23.136;2023-06-26T00:44:11;15.73;;;14.07;;
8281;SDS011;25606;42.686;23.136;2023-06-26T00:46:38;15.47;;;13.87;;
8281;SDS011;25606;42.686;23.136;2023-06-26T00:49:05;17.87;;;13.57;;
8281;SDS011;25606;42.686;23.136;2023-06-26T00:51:33;16.30;;;14.60;;
8281;SDS011;25606;42.686;23.136;2023-06-26T00:54:00;17.03;;;14.33;;
8281;SDS011;25606;42.686;23.136;2023-06-26T00:56:29;15.23;;;13.67;;
8281;SDS011;25606;42.686;23.136;2023-06-26T00:58:57;16.30;;;14.37;;
8281;SDS011;25606;42.686;23.136;2023-06-26T01:01:24;17.80;;;14.17;;
8281;SDS011;25606;42.686;23.136;2023-06-26T01:03:51;16.70;;;13.73;;
8281;SDS011;25606;42.686;23.136;2023-06-26T01:06:20;16.67;;;14.43;;
8281;SDS011;25606;42.686;23.136;2023-06-26T01:08:49;14.97;;;13.00;;
8281;SDS011;25606;42.686;23.136;2023-06-26T01:11:17;15.60;;;14.03;;
8281;SDS011;25606;42.686;23.136;2023-06-26T01:13:46;16.57;;;13.87;;
8281;SDS011;25606;42.686;23.136;2023-06-26T01:16:15;18.53;;;14.40;;
8281;SDS011;25606;42.686;23.136;2023-06-26T01:18:44;19.13;;;14.43;;
8281;SDS011;25606;42.686;23.136;2023-06-26T01:21:13;15.37;;;13.70;;
8281;SDS011;25606;42.686;23.136;2023-06-26T01:23:45;16.10;;;13.97;;
8281;SDS011;25606;42.686;23.136;2023-06-26T01:26:17;15.67;;;13.97;;
8281;SDS011;25606;42.686;23.136;2023-06-26T01:28:46;16.13;;;14.23;;
8281;SDS011;25606;42.686;23.136;2023-06-26T01:31:13;16.77;;;14.80;;
8281;SDS011;25606;42.686;23.136;2023-06-26T01:33:41;17.00;;;15.20;;
8281;SDS011;25606;42.686;23.136;2023-06-26T01:36:08;17.10;;;15.20;;
8281;SDS011;25606;42.686;23.136;2023-06-26T01:38:35;17.53;;;15.73;;
8281;SDS011;25606;42.686;23.136;2023-06-26T01:41:03;18.60;;;14.47;;
8281;SDS011;25606;42.686;23.136;2023-06-26T01:43:35;17.33;;;14.30;;
8281;SDS011;25606;42.686;23.136;2023-06-26T01:46:03;15.40;;;13.93;;
8281;SDS011;25606;42.686;23.136;2023-06-26T01:48:33;16.17;;;14.33;;
8281;SDS011;25606;42.686;23.136;2023-06-26T01:51:01;16.87;;;14.80;;
8281;SDS011;25606;42.686;23.136;2023-06-26T01:53:31;16.63;;;14.80;;
8281;SDS011;25606;42.686;23.136;2023-06-26T01:56:00;16.70;;;15.10;;
8281;SDS011;25606;42.686;23.136;2023-06-26T01:58:28;16.23;;;14.60;;
8281;SDS011;25606;42.686;23.136;2023-06-26T02:00:58;16.70;;;15.07;;
8281;SDS011;25606;42.686;23.136;2023-06-26T02:03:26;16.37;;;14.67;;
8281;SDS011;25606;42.686;23.136;2023-06-26T02:05:53;17.10;;;15.40;;
8281;SDS011;25606;42.686;23.136;2023-06-26T02:08:20;18.00;;;15.23;;
8281;SDS011;25606;42.686;23.136;2023-06-26T02:10:48;17.03;;;15.20;;
8281;SDS011;25606;42.686;23.136;2023-06-26T02:13:15;17.53;;;14.83;;
8281;SDS011;25606;42.686;23.136;2023-06-26T02:15:43;19.70;;;15.57;;
8281;SDS011;25606;42.686;23.136;2023-06-26T02:18:11;17.17;;;15.43;;
8281;SDS011;25606;42.686;23.136;2023-06-26T02:20:39;16.73;;;15.03;;
8281;SDS011;25606;42.686;23.136;2023-06-26T02:23:06;17.60;;;15.73;;
8281;SDS011;25606;42.686;23.136;2023-06-26T02:25:33;19.13;;;15.53;;
8281;SDS011;25606;42.686;23.136;2023-06-26T02:28:01;17.43;;;15.73;;
8281;SDS011;25606;42.686;23.136;2023-06-26T02:30:28;19.30;;;17.23;;
8281;SDS011;25606;42.686;23.136;2023-06-26T02:32:55;19.50;;;17.40;;
8281;SDS011;25606;42.686;23.136;2023-06-26T02:35:24;19.13;;;16.80;;
8281;SDS011;25606;42.686;23.136;2023-06-26T02:37:51;18.60;;;16.63;;
8281;SDS011;25606;42.686;23.136;2023-06-26T02:40:19;19.53;;;17.47;;
8281;SDS011;25606;42.686;23.136;2023-06-26T02:42:46;18.77;;;16.97;;
8281;SDS011;25606;42.686;23.136;2023-06-26T02:45:13;19.87;;;17.70;;
8281;SDS011;25606;42.686;23.136;2023-06-26T02:47:41;19.37;;;17.37;;
8281;SDS011;25606;42.686;23.136;2023-06-26T02:50:09;21.33;;;17.83;;
8281;SDS011;25606;42.686;23.136;2023-06-26T02:52:37;21.83;;;17.30;;
8281;SDS011;25606;42.686;23.136;2023-06-26T02:55:05;18.87;;;16.80;;
8281;SDS011;25606;42.686;23.136;2023-06-26T02:57:32;19.30;;;17.30;;
8281;SDS011;25606;42.686;23.136;2023-06-26T03:00:00;20.37;;;17.47;;
8281;SDS011;25606;42.686;23.136;2023-06-26T03:02:27;20.93;;;18.73;;
8281;SDS011;25606;42.686;23.136;2023-06-26T03:04:54;20.37;;;18.27;;
8281;SDS011;25606;42.686;23.136;2023-06-26T03:07:22;21.27;;;19.07;;
8281;SDS011;25606;42.686;23.136;2023-06-26T03:09:51;23.63;;;18.60;;
8281;SDS011;25606;42.686;23.136;2023-06-26T03:12:18;19.93;;;17.63;;
8281;SDS011;25606;42.686;23.136;2023-06-26T03:14:46;18.70;;;16.80;;
8281;SDS011;25606;42.686;23.136;2023-06-26T03:17:13;19.63;;;17.50;;
8281;SDS011;25606;42.686;23.136;2023-06-26T03:19:40;20.03;;;18.03;;
8281;SDS011;25606;42.686;23.136;2023-06-26T03:22:07;19.33;;;17.17;;
8281;SDS011;25606;42.686;23.136;2023-06-26T03:24:35;19.67;;;17.77;;
8281;SDS011;25606;42.686;23.136;2023-06-26T03:27:04;20.57;;;18.40;;
8281;SDS011;25606;42.686;23.136;2023-06-26T03:29:31;20.50;;;18.40;;
8281;SDS011;25606;42.686;23.136;2023-06-26T03:31:58;20.17;;;17.57;;
8281;SDS011;25606;42.686;23.136;2023-06-26T03:34:25;20.67;;;17.47;;
8281;SDS011;25606;42.686;23.136;2023-06-26T03:36:53;20.53;;;17.87;;
8281;SDS011;25606;42.686;23.136;2023-06-26T03:39:20;19.77;;;16.93;;
8281;SDS011;25606;42.686;23.136;2023-06-26T03:55:18;22.83;;;20.33;;
8281;SDS011;25606;42.686;23.136;2023-06-26T03:57:46;22.43;;;20.13;;
8281;SDS011;25606;42.686;23.136;2023-06-26T04:00:13;21.23;;;18.93;;
8281;SDS011;25606;42.686;23.136;2023-06-26T04:02:41;20.70;;;18.67;;
8281;SDS011;25606;42.686;23.136;2023-06-26T04:05:08;20.27;;;18.00;;
8281;SDS011;25606;42.686;23.136;2023-06-26T04:07:36;19.13;;;17.20;;
8281;SDS011;25606;42.686;23.136;2023-06-26T04:10:04;19.47;;;17.50;;
8281;SDS011;25606;42.686;23.136;2023-06-26T04:12:33;18.13;;;16.30;;
8281;SDS011;25606;42.686;23.136;2023-06-26T04:15:00;19.40;;;17.40;;
8281;SDS011;25606;42.686;23.136;2023-06-26T04:17:27;19.00;;;17.07;;
8281;SDS011;25606;42.686;23.136;2023-06-26T04:19:55;20.80;;;18.00;;
8281;SDS011;25606;42.686;23.136;2023-06-26T04:22:22;18.60;;;16.83;;
8281;SDS011;25606;42.686;23.136;2023-06-26T04:24:50;17.73;;;16.10;;
8281;SDS011;25606;42.686;23.136;2023-06-26T04:27:17;17.40;;;15.63;;
8281;SDS011;25606;42.686;23.136;2023-06-26T04:29:46;18.40;;;15.77;;
8281;SDS011;25606;42.686;23.136;2023-06-26T04:32:13;17.93;;;15.93;;
8281;SDS011;25606;42.686;23.136;2023-06-26T04:34:40;18.20;;;16.27;;
8281;SDS011;25606;42.686;23.136;2023-06-26T04:37:09;18.73;;;16.83;;
8281;SDS011;25606;42.686;23.136;2023-06-26T04:39:36;17.23;;;15.50;;
8281;SDS011;25606;42.686;23.136;2023-06-26T04:42:04;17.60;;;15.63;;
8281;SDS011;25606;42.686;23.136;2023-06-26T04:44:32;17.67;;;15.83;;
8281;SDS011;25606;42.686;23.136;2023-06-26T04:47:01;17.33;;;15.50;;
8281;SDS011;25606;42.686;23.136;2023-06-26T04:49:28;17.77;;;15.93;;
8281;SDS011;25606;42.686;23.136;2023-06-26T04:51:55;17.00;;;15.37;;
8281;SDS011;25606;42.686;23.136;2023-06-26T04:54:25;16.60;;;14.90;;
8281;SDS011;25606;42.686;23.136;2023-06-26T04:56:53;17.27;;;15.33;;
8281;SDS011;25606;42.686;23.136;2023-06-26T04:59:20;16.77;;;14.97;;
8281;SDS011;25606;42.686;23.136;2023-06-26T05:01:48;17.10;;;15.43;;
8281;SDS011;25606;42.686;23.136;2023-06-26T05:04:16;18.90;;;15.30;;
8281;SDS011;25606;42.686;23.136;2023-06-26T05:06:44;18.37;;;15.40;;
8281;SDS011;25606;42.686;23.136;2023-06-26T05:09:11;16.40;;;14.70;;
8281;SDS011;25606;42.686;23.136;2023-06-26T05:11:38;17.03;;;15.03;;
8281;SDS011;25606;42.686;23.136;2023-06-26T05:14:06;15.80;;;14.20;;
8281;SDS011;25606;42.686;23.136;2023-06-26T05:16:34;16.13;;;14.17;;
8281;SDS011;25606;42.686;23.136;2023-06-26T05:19:01;18.20;;;14.70;;
8281;SDS011;25606;42.686;23.136;2023-06-26T05:21:30;17.60;;;15.10;;
8281;SDS011;25606;42.686;23.136;2023-06-26T05:23:57;19.57;;;15.50;;
8281;SDS011;25606;42.686;23.136;2023-06-26T05:26:25;16.97;;;15.13;;
8281;SDS011;25606;42.686;23.136;2023-06-26T05:28:53;17.07;;;14.70;;
8281;SDS011;25606;42.686;23.136;2023-06-26T05:31:21;18.07;;;15.57;;
8281;SDS011;25606;42.686;23.136;2023-06-26T05:33:48;17.03;;;14.23;;
8281;SDS011;25606;42.686;23.136;2023-06-26T05:36:16;16.33;;;14.57;;
8281;SDS011;25606;42.686;23.136;2023-06-26T05:38:47;16.17;;;14.37;;
8281;SDS011;25606;42.686;23.136;2023-06-26T05:41:15;18.57;;;14.07;;
8281;SDS011;25606;42.686;23.136;2023-06-26T05:43:43;16.80;;;14.87;;
8281;SDS011;25606;42.686;23.136;2023-06-26T05:46:10;25.80;;;19.57;;
8281;SDS011;25606;42.686;23.136;2023-06-26T05:48:37;16.43;;;13.50;;
8281;SDS011;25606;42.686;23.136;2023-06-26T05:51:06;14.27;;;12.63;;
8281;SDS011;25606;42.686;23.136;2023-06-26T05:53:34;14.67;;;12.97;;
8281;SDS011;25606;42.686;23.136;2023-06-26T05:56:03;15.90;;;13.23;;
8281;SDS011;25606;42.686;23.136;2023-06-26T05:58:30;14.67;;;12.80;;
8281;SDS011;25606;42.686;23.136;2023-06-26T06:00:58;14.47;;;12.97;;
8281;SDS011;25606;42.686;23.136;2023-06-26T06:03:25;14.70;;;12.80;;
8281;SDS011;25606;42.686;23.136;2023-06-26T06:05:52;15.33;;;12.73;;
8281;SDS011;25606;42.686;23.136;2023-06-26T06:08:19;14.30;;;12.17;;
8281;SDS011;25606;42.686;23.136;2023-06-26T06:10:47;15.63;;;12.93;;
8281;SDS011;25606;42.686;23.136;2023-06-26T06:13:16;15.50;;;12.20;;
8281;SDS011;25606;42.686;23.136;2023-06-26T06:15:43;15.37;;;11.83;;
8281;SDS011;25606;42.686;23.136;2023-06-26T06:18:10;17.00;;;12.63;;
8281;SDS011;25606;42.686;23.136;2023-06-26T06:20:37;17.13;;;11.80;;
8281;SDS011;25606;42.686;23.136;2023-06-26T06:23:05;17.27;;;12.83;;
8281;SDS011;25606;42.686;23.136;2023-06-26T06:25:32;15.63;;;12.90;;
8281;SDS011;25606;42.686;23.136;2023-06-26T06:27:59;16.33;;;12.77;;
8281;SDS011;25606;42.686;23.136;2023-06-26T06:30:28;16.60;;;11.97;;
8281;SDS011;25606;42.686;23.136;2023-06-26T06:32:55;16.07;;;11.70;;
8281;SDS011;25606;42.686;23.136;2023-06-26T06:35:23;17.50;;;12.63;;
8281;SDS011;25606;42.686;23.136;2023-06-26T06:37:50;14.07;;;11.37;;
8281;SDS011;25606;42.686;23.136;2023-06-26T06:40:18;14.50;;;11.77;;
8281;SDS011;25606;42.686;23.136;2023-06-26T06:42:47;16.33;;;12.50;;
8281;SDS011;25606;42.686;23.136;2023-06-26T06:45:15;16.48;;;12.43;;
8281;SDS011;25606;42.686;23.136;2023-06-26T06:47:43;17.35;;;12.15;;
8281;SDS011;25606;42.686;23.136;2023-06-26T06:50:11;19.20;;;12.38;;
8281;SDS011;25606;42.686;23.136;2023-06-26T06:52:39;14.32;;;11.45;;
8281;SDS011;25606;42.686;23.136;2023-06-26T06:55:07;16.63;;;11.77;;
8281;SDS011;25606;42.686;23.136;2023-06-26T06:57:35;19.60;;;12.27;;
8281;SDS011;25606;42.686;23.136;2023-06-26T07:00:02;17.15;;;13.50;;
8281;SDS011;25606;42.686;23.136;2023-06-26T07:02:30;19.33;;;13.70;;
8281;SDS011;25606;42.686;23.136;2023-06-26T07:04:59;20.05;;;14.45;;
8281;SDS011;25606;42.686;23.136;2023-06-26T07:07:28;26.17;;;21.48;;
8281;SDS011;25606;42.686;23.136;2023-06-26T07:09:56;40.47;;;35.30;;
8281;SDS011;25606;42.686;23.136;2023-06-26T07:12:23;72.72;;;65.35;;
8281;SDS011;25606;42.686;23.136;2023-06-26T07:14:51;93.53;;;83.93;;
8281;SDS011;25606;42.686;23.136;2023-06-26T07:17:19;117.93;;;105.82;;
8281;SDS011;25606;42.686;23.136;2023-06-26T07:19:46;116.45;;;104.00;;
8281;SDS011;25606;42.686;23.136;2023-06-26T07:22:15;111.93;;;100.60;;
8281;SDS011;25606;42.686;23.136;2023-06-26T07:24:45;77.20;;;69.75;;
8281;SDS011;25606;42.686;23.136;2023-06-26T07:27:12;59.10;;;53.13;;
8281;SDS011;25606;42.686;23.136;2023-06-26T07:29:40;34.33;;;29.40;;
8281;SDS011;25606;42.686;23.136;2023-06-26T07:32:07;24.75;;;19.92;;
8281;SDS011;25606;42.686;23.136;2023-06-26T07:34:34;19.58;;;11.85;;
8281;SDS011;25606;42.686;23.136;2023-06-26T07:37:02;22.23;;;14.60;;
8281;SDS011;25606;42.686;23.136;2023-06-26T07:39:31;30.02;;;22.80;;
8281;SDS011;25606;42.686;23.136;2023-06-26T07:41:58;54.40;;;48.75;;
8281;SDS011;25606;42.686;23.136;2023-06-26T07:44:25;62.05;;;54.38;;
8281;SDS011;25606;42.686;23.136;2023-06-26T07:46:52;42.95;;;37.40;;
8281;SDS011;25606;42.686;23.136;2023-06-26T07:49:20;56.17;;;50.58;;
8281;SDS011;25606;42.686;23.136;2023-06-26T07:51:47;91.95;;;81.60;;
8281;SDS011;25606;42.686;23.136;2023-06-26T07:54:14;125.75;;;112.20;;
8281;SDS011;25606;42.686;23.136;2023-06-26T07:56:55;145.23;;;129.63;;
8281;SDS011;25606;42.686;23.136;2023-06-26T07:59:23;163.98;;;146.38;;
8281;SDS011;25606;42.686;23.136;2023-06-26T08:01:51;181.48;;;162.80;;
8281;SDS011;25606;42.686;23.136;2023-06-26T08:04:19;199.38;;;179.18;;
8281;SDS011;25606;42.686;23.136;2023-06-26T08:06:47;216.50;;;165.02;;
8281;SDS011;25606;42.686;23.136;2023-06-26T08:09:15;160.63;;;144.07;;
8281;SDS011;25606;42.686;23.136;2023-06-26T08:11:42;142.23;;;127.95;;
8281;SDS011;25606;42.686;23.136;2023-06-26T08:14:11;99.03;;;89.30;;
8281;SDS011;25606;42.686;23.136;2023-06-26T08:16:39;64.82;;;58.38;;
8281;SDS011;25606;42.686;23.136;2023-06-26T08:19:06;75.72;;;68.25;;
8281;SDS011;25606;42.686;23.136;2023-06-26T08:21:34;101.78;;;91.75;;
8281;SDS011;25606;42.686;23.136;2023-06-26T08:24:01;143.85;;;128.85;;
8281;SDS011;25606;42.686;23.136;2023-06-26T08:26:28;158.02;;;141.50;;
8281;SDS011;25606;42.686;23.136;2023-06-26T08:28:55;166.27;;;150.35;;
8281;SDS011;25606;42.686;23.136;2023-06-26T08:31:24;200.15;;;179.55;;
8281;SDS011;25606;42.686;23.136;2023-06-26T08:33:51;214.43;;;193.45;;
8281;SDS011;25606;42.686;23.136;2023-06-26T08:36:19;227.05;;;204.75;;
8281;SDS011;25606;42.686;23.136;2023-06-26T08:38:46;215.13;;;193.57;;
8281;SDS011;25606;42.686;23.136;2023-06-26T08:41:13;224.02;;;202.63;;
8281;SDS011;25606;42.686;23.136;2023-06-26T08:43:41;228.52;;;206.30;;
8281;SDS011;25606;42.686;23.136;2023-06-26T08:46:08;273.35;;;244.88;;
8281;SDS011;25606;42.686;23.136;2023-06-26T08:48:36;246.57;;;223.32;;
8281;SDS011;25606;42.686;23.136;2023-06-26T08:51:05;261.95;;;238.45;;
8281;SDS011;25606;42.686;23.136;2023-06-26T08:53:33;235.98;;;213.95;;
8281;SDS011;25606;42.686;23.136;2023-06-26T08:56:04;249.55;;;226.25;;
8281;SDS011;25606;42.686;23.136;2023-06-26T08:58:34;258.77;;;234.90;;
8281;SDS011;25606;42.686;23.136;2023-06-26T09:01:03;262.33;;;238.13;;
8281;SDS011;25606;42.686;23.136;2023-06-26T09:03:31;268.30;;;243.68;;
8281;SDS011;25606;42.686;23.136;2023-06-26T09:06:00;260.65;;;237.63;;
8281;SDS011;25606;42.686;23.136;2023-06-26T09:08:27;229.75;;;207.90;;
8281;SDS011;25606;42.686;23.136;2023-06-26T09:10:55;215.30;;;194.65;;
8281;SDS011;25606;42.686;23.136;2023-06-26T09:13:22;198.57;;;179.45;;
8281;SDS011;25606;42.686;23.136;2023-06-26T09:15:52;208.63;;;188.90;;
8281;SDS011;25606;42.686;23.136;2023-06-26T09:18:20;201.23;;;181.13;;
8281;SDS011;25606;42.686;23.136;2023-06-26T09:20:47;191.00;;;173.20;;
8281;SDS011;25606;42.686;23.136;2023-06-26T09:23:16;163.32;;;146.63;;
8281;SDS011;25606;42.686;23.136;2023-06-26T09:25:43;127.55;;;115.45;;
8281;SDS011;25606;42.686;23.136;2023-06-26T09:28:14;116.03;;;104.35;;
8281;SDS011;25606;42.686;23.136;2023-06-26T09:30:41;100.50;;;90.85;;
8281;SDS011;25606;42.686;23.136;2023-06-26T09:33:14;83.80;;;75.80;;
8281;SDS011;25606;42.686;23.136;2023-06-26T09:35:42;65.20;;;59.03;;
8281;SDS011;25606;42.686;23.136;2023-06-26T09:38:10;102.50;;;91.65;;
8281;SDS011;25606;42.686;23.136;2023-06-26T09:40:39;73.28;;;66.20;;
8281;SDS011;25606;42.686;23.136;2023-06-26T09:43:07;60.17;;;54.08;;
8281;SDS011;25606;42.686;23.136;2023-06-26T09:45:35;34.72;;;29.48;;
8281;SDS011;25606;42.686;23.136;2023-06-26T09:48:03;28.63;;;25.38;;
8281;SDS011;25606;42.686;23.136;2023-06-26T09:50:32;28.67;;;18.83;;
8281;SDS011;25606;42.686;23.136;2023-06-26T09:53:03;22.88;;;13.32;;
8281;SDS011;25606;42.686;23.136;2023-06-26T09:55:34;42.22;;;36.95;;
8281;SDS011;25606;42.686;23.136;2023-06-26T09:58:03;76.80;;;68.18;;
8281;SDS011;25606;42.686;23.136;2023-06-26T10:00:30;72.90;;;64.85;;
8281;SDS011;25606;42.686;23.136;2023-06-26T10:02:58;81.30;;;72.25;;
8281;SDS011;25606;42.686;23.136;2023-06-26T10:05:25;97.95;;;87.95;;
8281;SDS011;25606;42.686;23.136;2023-06-26T10:07:52;115.85;;;103.45;;
8281;SDS011;25606;42.686;23.136;2023-06-26T10:10:21;92.05;;;82.90;;
8281;SDS011;25606;42.686;23.136;2023-06-26T10:12:51;100.55;;;90.13;;
8281;SDS011;25606;42.686;23.136;2023-06-26T10:15:21;108.18;;;97.50;;
8281;SDS011;25606;42.686;23.136;2023-06-26T10:17:50;127.25;;;113.93;;
8281;SDS011;25606;42.686;23.136;2023-06-26T10:20:18;141.23;;;126.40;;
8281;SDS011;25606;42.686;23.136;2023-06-26T10:22:46;147.60;;;132.82;;
8281;SDS011;25606;42.686;23.136;2023-06-26T10:25:14;170.93;;;153.43;;
8281;SDS011;25606;42.686;23.136;2023-06-26T10:27:45;173.00;;;156.05;;
8281;SDS011;25606;42.686;23.136;2023-06-26T10:30:16;207.40;;;186.40;;
8281;SDS011;25606;42.686;23.136;2023-06-26T10:32:46;203.75;;;183.75;;
8281;SDS011;25606;42.686;23.136;2023-06-26T10:35:13;171.80;;;155.77;;
8281;SDS011;25606;42.686;23.136;2023-06-26T10:37:41;167.40;;;151.70;;
8281;SDS011;25606;42.686;23.136;2023-06-26T10:40:09;151.50;;;136.80;;
8281;SDS011;25606;42.686;23.136;2023-06-26T10:42:37;132.88;;;120.53;;
8281;SDS011;25606;42.686;23.136;2023-06-26T10:45:11;107.88;;;97.88;;
8281;SDS011;25606;42.686;23.136;2023-06-26T10:47:40;82.57;;;74.90;;
8281;SDS011;25606;42.686;23.136;2023-06-26T10:53:14;38.88;;;34.55;;
8281;SDS011;25606;42.686;23.136;2023-06-26T10:55:48;33.72;;;29.15;;
8281;SDS011;25606;42.686;23.136;2023-06-26T11:01:19;62.13;;;56.00;;
8281;SDS011;25606;42.686;23.136;2023-06-26T11:03:48;47.28;;;42.78;;
8281;SDS011;25606;42.686;23.136;2023-06-26T11:06:17;47.03;;;42.17;;
8281;SDS011;25606;42.686;23.136;2023-06-26T11:08:48;21.88;;;16.40;;
8281;SDS011;25606;42.686;23.136;2023-06-26T11:11:16;28.25;;;24.55;;
8281;SDS011;25606;42.686;23.136;2023-06-26T11:13:44;28.88;;;25.80;;
8281;SDS011;25606;42.686;23.136;2023-06-26T11:16:12;26.73;;;21.80;;
8281;SDS011;25606;42.686;23.136;2023-06-26T11:18:40;23.98;;;17.77;;
8281;SDS011;25606;42.686;23.136;2023-06-26T11:21:08;19.33;;;14.88;;
8281;SDS011;25606;42.686;23.136;2023-06-26T11:23:36;15.52;;;12.77;;
8281;SDS011;25606;42.686;23.136;2023-06-26T11:26:14;25.88;;;21.98;;
8281;SDS011;25606;42.686;23.136;2023-06-26T11:28:46;31.10;;;26.55;;
8281;SDS011;25606;42.686;23.136;2023-06-26T11:31:23;36.40;;;32.05;;
8281;SDS011;25606;42.686;23.136;2023-06-26T11:33:50;35.78;;;31.63;;
8281;SDS011;25606;42.686;23.136;2023-06-26T11:36:18;51.28;;;46.17;;
8281;SDS011;25606;42.686;23.136;2023-06-26T11:38:45;82.18;;;74.03;;
8281;SDS011;25606;42.686;23.136;2023-06-26T11:41:17;81.97;;;73.70;;
8281;SDS011;25606;42.686;23.136;2023-06-26T11:43:45;54.97;;;49.55;;
8281;SDS011;25606;42.686;23.136;2023-06-26T11:46:12;58.47;;;52.42;;
8281;SDS011;25606;42.686;23.136;2023-06-26T11:48:39;56.70;;;51.30;;
8281;SDS011;25606;42.686;23.136;2023-06-26T11:51:06;30.40;;;26.90;;
8281;SDS011;25606;42.686;23.136;2023-06-26T11:53:39;27.67;;;22.52;;
8281;SDS011;25606;42.686;23.136;2023-06-26T11:56:09;19.88;;;13.85;;
8281;SDS011;25606;42.686;23.136;2023-06-26T12:01:21;12.27;;;8.05;;
8281;SDS011;25606;42.686;23.136;2023-06-26T12:03:48;13.35;;;9.10;;
8281;SDS011;25606;42.686;23.136;2023-06-26T12:06:16;15.90;;;8.73;;
8281;SDS011;25606;42.686;23.136;2023-06-26T12:08:43;14.15;;;9.15;;
8281;SDS011;25606;42.686;23.136;2023-06-26T12:11:12;11.75;;;8.48;;
8281;SDS011;25606;42.686;23.136;2023-06-26T12:13:39;13.40;;;9.10;;
8281;SDS011;25606;42.686;23.136;2023-06-26T12:16:07;24.40;;;17.00;;
8281;SDS011;25606;42.686;23.136;2023-06-26T12:18:35;59.47;;;47.13;;
8281;SDS011;25606;42.686;23.136;2023-06-26T12:21:03;95.22;;;84.43;;
8281;SDS011;25606;42.686;23.136;2023-06-26T12:23:34;123.53;;;109.63;;
8281;SDS011;25606;42.686;23.136;2023-06-26T12:26:17;129.38;;;115.75;;
8281;SDS011;25606;42.686;23.136;2023-06-26T12:28:45;126.80;;;113.97;;
8281;SDS011;25606;42.686;23.136;2023-06-26T12:31:13;127.22;;;113.80;;
8281;SDS011;25606;42.686;23.136;2023-06-26T12:33:43;131.52;;;117.97;;
8281;SDS011;25606;42.686;23.136;2023-06-26T12:36:11;115.22;;;103.60;;
8281;SDS011;25606;42.686;23.136;2023-06-26T12:38:38;99.95;;;89.45;;
8281;SDS011;25606;42.686;23.136;2023-06-26T12:41:08;83.40;;;75.53;;
8281;SDS011;25606;42.686;23.136;2023-06-26T12:43:39;91.13;;;81.72;;
8281;SDS011;25606;42.686;23.136;2023-06-26T12:46:06;76.35;;;69.22;;
8281;SDS011;25606;42.686;23.136;2023-06-26T12:48:37;108.50;;;97.35;;
8281;SDS011;25606;42.686;23.136;2023-06-26T12:51:10;116.43;;;104.60;;
8281;SDS011;25606;42.686;23.136;2023-06-26T12:53:37;125.22;;;112.18;;
8281;SDS011;25606;42.686;23.136;2023-06-26T12:56:05;107.03;;;96.28;;
8281;SDS011;25606;42.686;23.136;2023-06-26T12:58:33;83.88;;;75.78;;
8281;SDS011;25606;42.686;23.136;2023-06-26T13:01:02;89.40;;;81.05;;
8281;SDS011;25606;42.686;23.136;2023-06-26T13:03:30;117.70;;;105.55;;
8281;SDS011;25606;42.686;23.136;2023-06-26T13:05:57;120.60;;;108.25;;
8281;SDS011;25606;42.686;23.136;2023-06-26T13:08:26;131.55;;;118.18;;
8281;SDS011;25606;42.686;23.136;2023-06-26T13:10:54;124.20;;;111.45;;
8281;SDS011;25606;42.686;23.136;2023-06-26T13:13:21;125.88;;;113.30;;
8281;SDS011;25606;42.686;23.136;2023-06-26T13:15:48;135.73;;;122.03;;
8281;SDS011;25606;42.686;23.136;2023-06-26T13:18:16;116.25;;;104.18;;
8281;SDS011;25606;42.686;23.136;2023-06-26T13:20:43;89.72;;;81.47;;
8281;SDS011;25606;42.686;23.136;2023-06-26T13:23:10;99.32;;;89.13;;
8281;SDS011;25606;42.686;23.136;2023-06-26T13:25:39;118.90;;;107.63;;
8281;SDS011;25606;42.686;23.136;2023-06-26T13:28:06;96.38;;;86.35;;
8281;SDS011;25606;42.686;23.136;2023-06-26T13:30:34;91.97;;;83.07;;
8281;SDS011;25606;42.686;23.136;2023-06-26T13:33:01;76.50;;;69.65;;
8281;SDS011;25606;42.686;23.136;2023-06-26T13:35:29;77.63;;;70.55;;
8281;SDS011;25606;42.686;23.136;2023-06-26T13:37:56;81.72;;;74.03;;
8281;SDS011;25606;42.686;23.136;2023-06-26T13:40:23;65.47;;;59.90;;
8281;SDS011;25606;42.686;23.136;2023-06-26T13:42:52;53.33;;;48.58;;
8281;SDS011;25606;42.686;23.136;2023-06-26T13:45:19;66.18;;;59.78;;
8281;SDS011;25606;42.686;23.136;2023-06-26T13:47:46;85.18;;;76.68;;
8281;SDS011;25606;42.686;23.136;2023-06-26T13:50:14;85.28;;;76.93;;
8281;SDS011;25606;42.686;23.136;2023-06-26T13:52:41;79.90;;;72.47;;
8281;SDS011;25606;42.686;23.136;2023-06-26T13:55:09;76.15;;;68.32;;
8281;SDS011;25606;42.686;23.136;2023-06-26T13:57:36;62.83;;;57.10;;
8281;SDS011;25606;42.686;23.136;2023-06-26T14:00:08;29.27;;;24.08;;
8281;SDS011;25606;42.686;23.136;2023-06-26T14:02:37;22.60;;;16.45;;
8281;SDS011;25606;42.686;23.136;2023-06-26T14:05:04;19.52;;;13.60;;
8281;SDS011;25606;42.686;23.136;2023-06-26T14:07:31;18.00;;;14.32;;
8281;SDS011;25606;42.686;23.136;2023-06-26T14:09:59;23.02;;;15.90;;
8281;SDS011;25606;42.686;23.136;2023-06-26T14:12:26;31.20;;;25.85;;
8281;SDS011;25606;42.686;23.136;2023-06-26T14:14:53;35.05;;;30.48;;
8281;SDS011;25606;42.686;23.136;2023-06-26T14:17:22;46.50;;;41.08;;
8281;SDS011;25606;42.686;23.136;2023-06-26T14:19:51;82.38;;;74.30;;
8281;SDS011;25606;42.686;23.136;2023-06-26T14:22:18;98.47;;;88.78;;
8281;SDS011;25606;42.686;23.136;2023-06-26T14:24:45;124.32;;;111.80;;
8281;SDS011;25606;42.686;23.136;2023-06-26T14:27:13;142.68;;;128.45;;
8281;SDS011;25606;42.686;23.136;2023-06-26T14:29:40;138.50;;;124.50;;
8281;SDS011;25606;42.686;23.136;2023-06-26T14:32:07;128.68;;;116.10;;
8281;SDS011;25606;42.686;23.136;2023-06-26T14:34:36;103.03;;;93.72;;
8281;SDS011;25606;42.686;23.136;2023-06-26T14:37:04;80.15;;;72.82;;
8281;SDS011;25606;42.686;23.136;2023-06-26T14:39:31;71.60;;;65.05;;
8281;SDS011;25606;42.686;23.136;2023-06-26T14:41:58;68.47;;;62.28;;
8281;SDS011;25606;42.686;23.136;2023-06-26T14:44:26;47.15;;;42.88;;